Time;durP1;ratioP1;P1;durP2;ratioP2;P2;SDS_P1;SDS_P2;PMS_P1;PMS_P2;Temp;Humidity;BMP_temperature;BMP_pressure;BME280_temperature;BME280_humidity;BME280_pressure;Samples;Min_cycle;Max_cycle;Signal;HPM_P1;HPM_P2
2024/01/09 00:00:44;;;;;;;4.85;2.67;;;;;;;-4.82;81.62;103291.56;5052818;28;20476;-74
2024/01/09 00:03:09;;;;;;;5.20;2.55;;;;;;;-4.91;81.56;103276.16;5052784;28;20138;-75
2024/01/09 00:05:34;;;;;;;5.90;2.65;;;;;;;-4.83;81.93;103283.78;5052469;28;20054;-74
2024/01/09 00:08:00;;;;;;;8.55;3.90;;;;;;;-4.85;81.49;103283.78;5052664;28;20127;-74
2024/01/09 00:10:26;;;;;;;6.28;2.53;;;;;;;-4.88;82.25;103291.69;5052456;28;20098;-74
2024/01/09 00:12:51;;;;;;;8.43;2.72;;;;;;;-4.93;82.27;103265.75;5052607;28;20068;-74
2024/01/09 00:15:16;;;;;;;8.63;4.35;;;;;;;-4.90;82.27;103278.72;5052430;28;20031;-74
2024/01/09 00:17:42;;;;;;;4.57;2.55;;;;;;;-4.91;82.56;103284.81;5052576;28;20440;-75
2024/01/09 00:20:07;;;;;;;7.63;2.92;;;;;;;-4.92;81.91;103280.50;5052226;28;20154;-75
2024/01/09 00:22:33;;;;;;;3.65;2.20;;;;;;;-4.99;82.40;103273.72;5052274;28;20090;-75
2024/01/09 00:24:58;;;;;;;4.47;2.60;;;;;;;-4.95;83.28;103271.91;5052179;28;20078;-74
2024/01/09 00:27:24;;;;;;;9.68;3.53;;;;;;;-4.99;82.97;103276.31;5052216;28;20058;-74
2024/01/09 00:29:49;;;;;;;8.05;3.00;;;;;;;-5.02;82.42;103273.81;5052146;28;20036;-74
2024/01/09 00:32:14;;;;;;;3.03;1.90;;;;;;;-5.09;83.30;103265.28;5052153;28;20029;-74
2024/01/09 00:34:40;;;;;;;8.82;3.67;;;;;;;-5.05;83.38;103284.28;5052168;28;20555;-74
2024/01/09 00:37:06;;;;;;;6.95;3.15;;;;;;;-5.03;83.61;103285.13;5050758;28;20036;-74
2024/01/09 00:39:31;;;;;;;5.15;2.55;;;;;;;-5.06;83.57;103272.16;5051997;28;20029;-74
2024/01/09 00:41:56;;;;;;;7.40;2.38;;;;;;;-5.07;83.58;103279.09;5050689;28;20396;-75
2024/01/09 00:44:22;;;;;;;5.65;2.80;;;;;;;-5.12;83.81;103278.34;5051962;28;20419;-75
2024/01/09 00:46:47;;;;;;;6.80;2.90;;;;;;;-5.13;84.22;103281.00;5050644;28;20467;-75
2024/01/09 00:49:13;;;;;;;6.20;2.83;;;;;;;-5.12;84.03;103277.50;5050524;28;20107;-74
2024/01/09 00:51:38;;;;;;;4.90;3.20;;;;;;;-5.19;84.29;103273.31;5051827;28;20036;-75
2024/01/09 00:54:03;;;;;;;8.52;2.92;;;;;;;-5.19;83.77;103271.56;5051824;28;20039;-75
2024/01/09 00:56:29;;;;;;;7.97;3.33;;;;;;;-5.18;83.77;103270.69;5050212;28;20064;-75
2024/01/09 00:58:54;;;;;;;5.03;2.30;;;;;;;-5.17;84.11;103276.75;5051693;28;20052;-75
2024/01/09 01:01:19;;;;;;;10.10;3.38;;;;;;;-5.18;83.53;103268.09;5051883;28;20037;-75
2024/01/09 01:03:45;;;;;;;7.53;3.05;;;;;;;-5.21;83.93;103270.78;5050255;28;20029;-74
2024/01/09 01:06:10;;;;;;;9.77;4.38;;;;;;;-5.20;83.66;103266.41;5049307;28;20048;-75
2024/01/09 01:08:37;;;;;;;6.60;2.78;;;;;;;-5.25;83.79;103263.06;5050314;28;20051;-75
2024/01/09 01:11:03;;;;;;;5.95;2.58;;;;;;;-5.20;83.48;103272.47;5051436;28;20036;-75
2024/01/09 01:13:29;;;;;;;4.93;2.67;;;;;;;-5.26;84.33;103267.41;5049963;28;20443;-75
2024/01/09 01:15:54;;;;;;;3.92;2.78;;;;;;;-5.24;84.42;103269.97;5051480;28;20052;-75
2024/01/09 01:18:19;;;;;;;6.82;3.20;;;;;;;-5.23;83.36;103271.69;5049876;28;20383;-75
2024/01/09 01:20:45;;;;;;;11.77;3.35;;;;;;;-5.19;82.94;103279.38;5051122;28;20037;-75
2024/01/09 01:23:10;;;;;;;5.68;2.60;;;;;;;-5.23;83.30;103269.94;5051109;28;20017;-75
2024/01/09 01:25:36;;;;;;;6.35;2.65;;;;;;;-5.23;83.98;103274.31;5051281;28;20033;-75
2024/01/09 01:28:01;;;;;;;4.78;2.60;;;;;;;-5.28;83.90;103270.03;5051154;28;20455;-75
2024/01/09 01:30:27;;;;;;;3.67;1.92;;;;;;;-5.30;83.97;103278.75;5051068;28;20125;-75
2024/01/09 01:32:52;;;;;;;4.47;2.60;;;;;;;-5.33;84.19;103277.09;5050998;28;20052;-75
2024/01/09 01:35:17;;;;;;;5.38;2.70;;;;;;;-5.34;84.72;103272.78;5050817;28;20034;-75
2024/01/09 01:37:43;;;;;;;4.10;2.33;;;;;;;-5.32;84.22;103277.94;5049702;28;20033;-75
2024/01/09 01:40:09;;;;;;;8.18;3.38;;;;;;;-5.37;84.42;103272.84;5051071;28;20127;-75
2024/01/09 01:42:34;;;;;;;4.57;2.80;;;;;;;-5.41;83.78;103273.81;5050884;28;20033;-75
2024/01/09 01:44:59;;;;;;;5.63;2.53;;;;;;;-5.34;84.42;103278.00;5050852;28;20032;-75
2024/01/09 01:47:25;;;;;;;4.75;2.53;;;;;;;-5.53;84.64;103254.13;5050777;28;20020;-75
2024/01/09 01:49:52;;;;;;;11.55;2.92;;;;;;;-5.39;84.03;103271.19;5050750;28;20036;-75
2024/01/09 01:52:18;;;;;;;7.07;2.47;;;;;;;-5.38;84.21;103280.69;5050646;28;20032;-75
2024/01/09 01:54:44;;;;;;;6.05;3.17;;;;;;;-5.42;85.33;103281.63;5050545;28;20086;-75
2024/01/09 01:57:10;;;;;;;6.15;3.20;;;;;;;-5.40;84.92;103266.84;5048967;28;20060;-75
2024/01/09 01:59:40;;;;;;;4.57;2.70;;;;;;;-5.43;85.82;103272.13;5050675;28;20068;-75
2024/01/09 02:02:06;;;;;;;6.53;3.47;;;;;;;-5.49;85.66;103270.50;5050516;28;20388;-75
2024/01/09 02:04:32;;;;;;;3.95;2.40;;;;;;;-5.51;86.64;103267.09;5050347;28;20025;-75
2024/01/09 02:06:58;;;;;;;4.63;2.30;;;;;;;-5.51;85.28;103274.88;5050429;28;20132;-75
2024/01/09 02:09:23;;;;;;;6.72;2.60;;;;;;;-5.50;86.25;103281.81;5049077;28;20033;-75
2024/01/09 02:11:49;;;;;;;7.10;2.75;;;;;;;-5.52;86.39;103270.59;5050200;28;20047;-75
2024/01/09 02:14:15;;;;;;;5.90;2.90;;;;;;;-5.59;87.26;103272.44;5050292;28;20029;-75
2024/01/09 02:16:40;;;;;;;5.32;2.90;;;;;;;-5.59;86.79;103266.41;5050174;28;20544;-75
2024/01/09 02:19:05;;;;;;;5.63;2.55;;;;;;;-5.61;87.57;103270.75;5048732;28;20033;-75
2024/01/09 02:21:31;;;;;;;6.60;2.50;;;;;;;-5.67;87.46;103266.56;5048809;28;20036;-75
2024/01/09 02:23:56;;;;;;;8.32;3.10;;;;;;;-5.62;87.38;103264.72;5050053;28;20052;-75
2024/01/09 02:26:29;;;;;;;7.05;3.00;;;;;;;-5.68;87.61;103258.81;5050004;28;20402;-75
2024/01/09 02:28:58;;;;;;;5.00;2.60;;;;;;;-5.76;88.35;103248.56;5049993;28;20037;-75
2024/01/09 02:31:25;;;;;;;9.70;3.38;;;;;;;-5.69;88.85;103259.69;5049919;28;20025;-75
2024/01/09 02:33:51;;;;;;;4.60;2.85;;;;;;;-5.68;88.94;103258.81;5049779;28;20063;-75
2024/01/09 02:36:17;;;;;;;4.10;2.47;;;;;;;-5.72;88.24;103258.84;5049655;28;20451;-75
2024/01/09 02:38:44;;;;;;;5.03;2.67;;;;;;;-5.73;89.14;103257.16;5049989;28;20048;-75
2024/01/09 02:41:09;;;;;;;6.10;2.63;;;;;;;-5.74;89.05;103251.97;5049814;28;20036;-75
2024/01/09 02:43:34;;;;;;;7.97;3.15;;;;;;;-5.73;88.89;103248.50;5049841;28;20025;-75
2024/01/09 02:46:00;;;;;;;11.18;3.67;;;;;;;-5.81;89.22;103230.47;5049669;28;20029;-75
2024/01/09 02:48:25;;;;;;;6.70;3.45;;;;;;;-5.75;89.64;103245.91;5049619;28;20032;-75
2024/01/09 02:50:50;;;;;;;5.05;3.13;;;;;;;-5.76;89.15;103239.03;5048338;28;20119;-75
2024/01/09 02:53:16;;;;;;;5.22;2.92;;;;;;;-5.77;90.22;103241.63;5048022;28;20067;-75
2024/01/09 02:55:41;;;;;;;7.13;3.20;;;;;;;-5.87;90.53;103237.50;5048170;28;20052;-75
2024/01/09 02:58:06;;;;;;;10.77;3.85;;;;;;;-5.78;89.87;103246.00;5049275;28;20045;-75
2024/01/09 03:00:32;;;;;;;5.45;2.13;;;;;;;-5.82;89.94;103241.72;5049368;28;20025;-75
2024/01/09 03:02:57;;;;;;;6.45;3.47;;;;;;;-5.82;90.39;103243.47;5048142;28;20061;-75
2024/01/09 03:05:23;;;;;;;4.45;2.75;;;;;;;-5.84;90.33;103248.72;5048241;28;20044;-75
2024/01/09 03:07:48;;;;;;;7.97;3.05;;;;;;;-5.84;90.51;103253.91;5047941;28;20039;-75
2024/01/09 03:10:14;;;;;;;4.75;3.55;;;;;;;-5.85;91.18;103238.34;5049298;28;20112;-75
2024/01/09 03:12:39;;;;;;;3.25;1.95;;;;;;;-5.85;90.18;103239.19;5049155;28;20036;-75
2024/01/09 03:15:05;;;;;;;8.18;3.45;;;;;;;-5.78;89.25;103240.78;5049126;28;20041;-75
2024/01/09 03:17:30;;;;;;;7.70;2.60;;;;;;;-5.78;89.10;103248.59;5049208;28;20027;-75
2024/01/09 03:19:56;;;;;;;5.95;3.00;;;;;;;-5.76;89.01;103241.63;5049123;28;20391;-75
2024/01/09 03:22:21;;;;;;;5.95;4.00;;;;;;;-5.82;89.53;103231.34;5049083;28;20036;-75
2024/01/09 03:24:47;;;;;;;5.40;2.67;;;;;;;-5.85;89.85;103225.34;5047682;28;20033;-75
2024/01/09 03:27:12;;;;;;;5.07;2.63;;;;;;;-5.78;89.31;103245.13;5048871;28;20044;-75
2024/01/09 03:29:37;;;;;;;5.47;2.90;;;;;;;-5.80;89.62;103245.16;5048717;28;20063;-75
2024/01/09 03:32:04;;;;;;;7.22;2.95;;;;;;;-5.77;88.84;103245.09;5048482;28;20476;-75
2024/01/09 03:34:29;;;;;;;9.32;3.50;;;;;;;-5.74;89.25;103244.16;5049594;28;20049;-75
2024/01/09 03:36:55;;;;;;;6.43;3.10;;;;;;;-5.76;89.86;103248.56;5048910;28;20032;-76
2024/01/09 03:39:20;;;;;;;4.10;2.55;;;;;;;-5.76;89.55;103249.41;5049039;28;20056;-75
2024/01/09 03:41:46;;;;;;;6.03;2.63;;;;;;;-5.79;89.57;103238.22;5048924;28;20376;-75
2024/01/09 03:44:12;;;;;;;3.42;2.20;;;;;;;-5.84;90.49;103246.13;5049200;28;20118;-75
2024/01/09 03:46:37;;;;;;;6.38;2.60;;;;;;;-5.88;90.99;103252.25;5048879;28;20025;-75
2024/01/09 03:49:03;;;;;;;5.00;2.67;;;;;;;-5.89;90.90;103242.75;5048832;28;20033;-75
2024/01/09 03:51:29;;;;;;;7.00;3.25;;;;;;;-5.96;91.29;103230.81;5048821;28;20052;-75
2024/01/09 03:53:54;;;;;;;5.70;2.63;;;;;;;-5.94;91.77;103230.78;5048750;28;20033;-75
2024/01/09 03:56:20;;;;;;;5.18;2.15;;;;;;;-5.99;91.79;103231.72;5048499;28;20052;-75
2024/01/09 03:58:45;;;;;;;6.78;2.80;;;;;;;-5.97;91.80;103229.09;5048739;28;20033;-75
2024/01/09 04:01:10;;;;;;;5.40;3.08;;;;;;;-5.98;91.97;103233.41;5048608;28;20029;-75
2024/01/09 04:03:36;;;;;;;4.88;2.83;;;;;;;-5.91;91.37;103236.72;5047407;28;20031;-75
2024/01/09 04:06:02;;;;;;;8.90;3.03;;;;;;;-5.89;90.84;103239.31;5048429;28;20080;-75
2024/01/09 04:08:27;;;;;;;10.93;3.28;;;;;;;-5.90;90.91;103235.84;5048660;28;20503;-75
2024/01/09 04:10:53;;;;;;;4.35;3.22;;;;;;;-6.00;91.32;103218.75;5048562;28;20033;-75
2024/01/09 04:13:19;;;;;;;9.63;3.95;;;;;;;-6.01;91.37;103227.44;5047181;28;20039;-75
2024/01/09 04:15:44;;;;;;;8.82;2.75;;;;;;;-6.12;91.79;103211.22;5048524;28;20472;-75
2024/01/09 04:18:09;;;;;;;8.05;3.10;;;;;;;-6.02;91.68;103234.38;5048332;28;20041;-75
2024/01/09 04:20:35;;;;;;;7.95;3.33;;;;;;;-6.01;92.16;103233.50;5048473;28;20051;-75
2024/01/09 04:23:00;;;;;;;3.08;2.33;;;;;;;-6.03;92.65;103230.06;5048254;28;20044;-75
2024/01/09 04:25:26;;;;;;;4.07;2.58;;;;;;;-6.11;92.08;103224.16;5048480;28;20182;-75
2024/01/09 04:27:51;;;;;;;8.77;3.13;;;;;;;-6.04;91.98;103232.72;5047147;28;20033;-75
2024/01/09 04:30:16;;;;;;;5.47;3.03;;;;;;;-6.06;92.22;103232.72;5048428;28;20071;-75
2024/01/09 04:32:42;;;;;;;6.60;3.30;;;;;;;-6.06;92.28;103237.06;5047020;28;20037;-75
2024/01/09 04:35:07;;;;;;;7.40;3.50;;;;;;;-6.07;92.20;103230.19;5048275;28;20519;-75
2024/01/09 04:37:32;;;;;;;4.85;2.67;;;;;;;-6.05;91.76;103243.97;5048308;28;20059;-75
2024/01/09 04:39:58;;;;;;;5.45;2.80;;;;;;;-6.09;92.04;103239.72;5048653;28;20025;-75
2024/01/09 04:42:23;;;;;;;4.97;3.00;;;;;;;-6.07;92.06;103231.03;5052099;28;20375;-75
2024/01/09 04:44:48;;;;;;;7.55;3.13;;;;;;;-6.06;92.00;103230.13;5051827;28;20021;-75
2024/01/09 04:47:15;;;;;;;6.65;3.03;;;;;;;-6.07;91.76;103238.81;5051836;28;20545;-75
2024/01/09 04:49:44;;;;;;;7.55;2.72;;;;;;;-6.09;91.94;103226.75;5051969;28;20052;-75
2024/01/09 04:52:10;;;;;;;6.78;2.60;;;;;;;-6.11;92.65;103234.56;5051836;28;20037;-75
2024/01/09 04:54:35;;;;;;;7.07;3.38;;;;;;;-6.14;92.70;103236.38;5051664;28;20132;-75
2024/01/09 04:57:01;;;;;;;7.55;3.00;;;;;;;-6.15;92.85;103234.66;5050249;28;20084;-75
2024/01/09 04:59:26;;;;;;;6.57;2.63;;;;;;;-6.14;93.47;103236.38;5051625;28;20470;-75
2024/01/09 05:01:52;;;;;;;4.05;2.53;;;;;;;-6.15;92.97;103226.88;5051675;28;20154;-75
2024/01/09 05:04:17;;;;;;;4.40;3.13;;;;;;;-6.13;92.64;103228.56;5051768;28;20483;-75
2024/01/09 05:06:43;;;;;;;7.38;3.22;;;;;;;-6.15;92.58;103230.31;5051554;28;20036;-75
2024/01/09 05:09:09;;;;;;;4.93;2.33;;;;;;;-6.15;93.10;103226.88;5051602;28;20051;-75
2024/01/09 05:11:35;;;;;;;5.70;2.80;;;;;;;-6.15;92.56;103227.72;5050038;28;20029;-75
2024/01/09 05:14:00;;;;;;;6.65;3.00;;;;;;;-6.11;92.37;103231.09;5051195;28;20079;-75
2024/01/09 05:16:27;;;;;;;9.18;3.67;;;;;;;-6.14;92.93;103223.38;5051816;28;20053;-76
2024/01/09 05:18:52;;;;;;;5.95;2.72;;;;;;;-6.25;92.66;103214.06;5050012;28;20060;-75
2024/01/09 05:21:18;;;;;;;7.55;2.97;;;;;;;-6.22;92.10;103206.19;5051254;28;20071;-75
2024/01/09 05:23:43;;;;;;;9.40;2.95;;;;;;;-6.15;92.73;103230.31;5049918;28;20052;-75
2024/01/09 05:26:09;;;;;;;4.18;2.00;;;;;;;-6.18;92.94;103228.63;5050087;28;20045;-75
2024/01/09 05:28:34;;;;;;;7.28;3.55;;;;;;;-6.18;92.52;103233.84;5051069;28;20021;-75
2024/01/09 05:31:01;;;;;;;7.70;2.67;;;;;;;-6.18;93.24;103233.84;5051096;28;20532;-75
2024/01/09 05:33:26;;;;;;;7.82;3.22;;;;;;;-6.19;92.55;103239.88;5051005;28;20047;-75
2024/01/09 05:35:52;;;;;;;7.28;2.85;;;;;;;-6.18;93.21;103235.59;5050992;28;20032;-75
2024/01/09 05:38:17;;;;;;;7.32;3.38;;;;;;;-6.19;93.73;103236.44;5050721;28;20075;-75
2024/01/09 05:40:42;;;;;;;10.32;3.92;;;;;;;-6.22;93.71;103233.91;5050949;28;20029;-75
2024/01/09 05:43:08;;;;;;;6.72;2.92;;;;;;;-6.25;93.55;103224.44;5050712;28;20035;-75
2024/01/09 05:45:33;;;;;;;6.75;3.22;;;;;;;-6.28;93.90;103234.88;5050821;28;20078;-75
2024/01/09 05:47:59;;;;;;;6.25;3.38;;;;;;;-6.20;93.54;103235.59;5049363;28;20039;-75
2024/01/09 05:50:24;;;;;;;5.70;3.70;;;;;;;-6.17;93.40;103232.09;5050578;28;20115;-75
2024/01/09 05:52:49;;;;;;;9.15;3.97;;;;;;;-6.22;93.33;103228.72;5050165;28;20028;-75
2024/01/09 05:55:15;;;;;;;5.75;2.75;;;;;;;-6.31;93.79;103214.19;5050430;28;20087;-75
2024/01/09 05:57:42;;;;;;;10.52;3.67;;;;;;;-6.30;94.79;103225.41;5050289;28;20061;-75
2024/01/09 06:00:08;;;;;;;8.73;3.72;;;;;;;-6.32;95.35;103233.22;5049267;28;20400;-75
2024/01/09 06:02:34;;;;;;;10.27;3.10;;;;;;;-6.30;94.89;103226.25;5050369;28;20036;-75
2024/01/09 06:04:59;;;;;;;7.40;3.38;;;;;;;-6.37;94.84;103221.22;5032840;28;20021;-75
2024/01/09 06:07:24;;;;;;;6.65;2.90;;;;;;;-6.36;96.02;103225.53;5050332;28;20039;-75
2024/01/09 06:09:50;;;;;;;10.00;3.10;;;;;;;-6.42;95.69;103227.38;5050238;28;20682;-75
2024/01/09 06:12:15;;;;;;;8.52;3.40;;;;;;;-6.40;96.29;103233.34;5048962;28;20451;-75
2024/01/09 06:14:40;;;;;;;8.65;4.10;;;;;;;-6.43;96.57;103225.63;5050126;28;20445;-75
2024/01/09 06:17:06;;;;;;;6.93;2.70;;;;;;;-6.40;96.61;103232.50;5050235;28;20043;-75
2024/01/09 06:19:31;;;;;;;16.55;7.32;;;;;;;-6.41;96.44;103220.44;5050245;28;20028;-75
2024/01/09 06:21:57;;;;;;;10.48;4.13;;;;;;;-6.39;96.75;103231.66;5050116;28;20476;-75
2024/01/09 06:24:22;;;;;;;5.05;2.38;;;;;;;-6.42;97.09;103226.47;5050211;28;20075;-74
2024/01/09 06:26:48;;;;;;;4.88;2.30;;;;;;;-6.49;97.45;103222.31;5049817;28;20120;-74
2024/01/09 06:29:13;;;;;;;7.35;3.35;;;;;;;-6.47;98.00;103229.19;5050015;28;20115;-74
2024/01/09 06:31:40;;;;;;;10.75;3.65;;;;;;;-6.42;97.32;103231.69;5049951;28;20086;-74
2024/01/09 06:34:06;;;;;;;7.88;3.42;;;;;;;-6.48;97.44;103224.84;5049608;28;20484;-74
2024/01/09 06:36:31;;;;;;;8.00;4.13;;;;;;;-6.43;97.44;103243.81;5049743;28;20037;-74
2024/01/09 06:38:57;;;;;;;8.93;3.80;;;;;;;-6.47;97.30;103236.09;5049794;28;20503;-74
2024/01/09 06:41:22;;;;;;;10.70;4.22;;;;;;;-6.43;97.09;103243.81;5049222;28;20072;-74
2024/01/09 06:43:48;;;;;;;6.50;3.00;;;;;;;-6.45;96.81;103244.72;5049616;28;20021;-75
2024/01/09 06:46:13;;;;;;;9.38;4.70;;;;;;;-6.47;98.01;103244.75;5031769;28;20667;-75
2024/01/09 06:48:38;;;;;;;6.53;3.92;;;;;;;-6.51;97.88;103237.06;5049403;28;20035;-74
2024/01/09 06:51:04;;;;;;;9.82;3.53;;;;;;;-6.47;97.98;103255.16;5049286;28;20021;-74
2024/01/09 06:53:29;;;;;;;9.88;3.95;;;;;;;-6.46;98.02;103250.81;5049263;28;20120;-74
2024/01/09 06:55:54;;;;;;;6.35;2.95;;;;;;;-6.47;97.34;103260.34;5049219;28;20178;-74
2024/01/09 06:58:20;;;;;;;9.55;3.78;;;;;;;-6.45;97.42;103255.09;5049433;28;20082;-74
2024/01/09 07:00:45;;;;;;;8.27;3.75;;;;;;;-6.45;97.26;103255.94;5047894;28;20107;-74
2024/01/09 07:03:10;;;;;;;6.80;3.15;;;;;;;-6.45;97.24;103250.75;5048479;28;20119;-74
2024/01/09 07:05:36;;;;;;;11.13;3.50;;;;;;;-6.46;96.84;103261.19;5049196;28;20029;-74
2024/01/09 07:08:03;;;;;;;10.73;4.35;;;;;;;-6.46;97.16;103256.00;5049116;28;20041;-73
2024/01/09 07:10:28;;;;;;;12.73;4.50;;;;;;;-6.49;97.83;103256.91;5048984;28;20427;-73
2024/01/09 07:12:53;;;;;;;8.82;4.32;;;;;;;-6.48;97.61;103265.53;5048885;28;20036;-73
2024/01/09 07:15:19;;;;;;;7.88;4.20;;;;;;;-6.50;97.01;103256.91;5047863;28;20036;-72
2024/01/09 07:17:45;;;;;;;6.25;3.28;;;;;;;-6.47;96.63;103265.53;5047567;28;20357;-72
2024/01/09 07:20:11;;;;;;;7.65;3.35;;;;;;;-6.50;97.03;103255.16;5049052;28;20098;-73
2024/01/09 07:22:37;;;;;;;9.75;4.05;;;;;;;-6.50;97.11;103254.31;5049059;28;20384;-73
2024/01/09 07:25:03;;;;;;;8.50;4.13;;;;;;;-6.50;96.23;103252.56;5048740;28;20029;-73
2024/01/09 07:27:28;;;;;;;9.90;4.20;;;;;;;-6.43;96.18;103261.13;5048873;28;20033;-74
2024/01/09 07:29:53;;;;;;;6.75;3.63;;;;;;;-6.43;96.03;103266.31;5047454;28;20059;-74
2024/01/09 07:32:20;;;;;;;7.05;3.08;;;;;;;-6.43;95.94;103272.34;5048578;28;20055;-74
2024/01/09 07:34:46;;;;;;;8.43;3.45;;;;;;;-6.46;96.64;103268.97;5046586;28;20028;-74
2024/01/09 07:37:11;;;;;;;8.63;3.55;;;;;;;-6.47;97.03;103267.25;5048181;28;20499;-73
2024/01/09 07:39:36;;;;;;;8.38;3.75;;;;;;;-6.44;97.31;103272.41;5046480;28;20037;-73
2024/01/09 07:42:02;;;;;;;9.98;3.55;;;;;;;-6.48;97.48;103278.53;5047925;28;20033;-74
2024/01/09 07:44:27;;;;;;;8.93;4.68;;;;;;;-6.46;97.17;103284.53;5048593;28;20032;-74
2024/01/09 07:46:53;;;;;;;4.20;2.92;;;;;;;-6.48;97.66;103294.09;5047004;28;20356;-74
2024/01/09 07:49:18;;;;;;;9.75;4.40;;;;;;;-6.48;97.05;103288.91;5048708;28;20072;-74
2024/01/09 07:51:44;;;;;;;9.50;3.65;;;;;;;-6.47;96.75;103286.28;5048762;28;20075;-74
2024/01/09 07:54:10;;;;;;;9.10;3.90;;;;;;;-6.50;97.81;103294.09;5048162;28;20037;-74
2024/01/09 07:56:35;;;;;;;12.18;5.60;;;;;;;-6.44;96.21;103293.16;5029615;28;20076;-74
2024/01/09 07:59:00;;;;;;;9.27;4.68;;;;;;;-6.46;96.80;103290.59;5047158;28;20036;-74
2024/01/09 08:01:27;;;;;;;10.20;4.07;;;;;;;-6.48;97.14;103304.47;5047100;28;20486;-74
2024/01/09 08:03:52;;;;;;;7.70;4.30;;;;;;;-6.50;96.46;103299.28;5048578;28;20100;-74
2024/01/09 08:06:18;;;;;;;8.15;4.47;;;;;;;-6.46;96.64;103292.34;5048581;28;20152;-74
2024/01/09 08:08:43;;;;;;;14.82;4.53;;;;;;;-6.48;96.88;103297.53;5048479;28;20075;-74
2024/01/09 08:11:09;;;;;;;10.80;3.70;;;;;;;-6.45;95.96;103304.41;5048284;28;20025;-74
2024/01/09 08:13:35;;;;;;;8.32;4.28;;;;;;;-6.49;96.36;103298.44;5046687;28;20033;-74
2024/01/09 08:16:01;;;;;;;11.98;5.25;;;;;;;-6.42;96.36;103300.06;5050780;28;20033;-74
2024/01/09 08:18:27;;;;;;;11.75;4.88;;;;;;;-6.44;95.76;103307.00;5051766;28;20615;-74
2024/01/09 08:20:53;;;;;;;7.75;3.78;;;;;;;-6.53;95.61;103282.94;5052277;28;20040;-74
2024/01/09 08:23:19;;;;;;;8.27;4.55;;;;;;;-6.35;94.72;103311.16;5052339;28;20029;-74
2024/01/09 08:25:45;;;;;;;7.57;4.05;;;;;;;-6.35;94.80;103316.38;5052334;28;20029;-73
2024/01/09 08:28:10;;;;;;;10.35;5.20;;;;;;;-6.36;94.50;103291.28;5050008;28;20047;-73
2024/01/09 08:30:36;;;;;;;9.85;5.03;;;;;;;-6.32;93.53;103305.06;5050028;28;20060;-73
2024/01/09 08:33:02;;;;;;;7.80;4.53;;;;;;;-6.34;94.41;103296.44;5049950;28;20025;-73
2024/01/09 08:35:27;;;;;;;10.00;3.72;;;;;;;-6.28;94.45;103299.81;5048258;28;20036;-73
2024/01/09 08:37:53;;;;;;;6.18;3.47;;;;;;;-6.29;94.67;103310.19;5049944;28;20904;-74
2024/01/09 08:40:18;;;;;;;9.55;4.75;;;;;;;-6.27;93.77;103305.84;5049679;28;20037;-73
2024/01/09 08:42:44;;;;;;;12.18;5.18;;;;;;;-6.19;93.40;103312.59;5048696;28;20028;-72
2024/01/09 08:45:09;;;;;;;9.07;3.38;;;;;;;-6.19;93.78;103320.41;5049931;28;20043;-73
2024/01/09 08:47:35;;;;;;;12.02;5.15;;;;;;;-6.16;93.05;103319.50;5048165;28;20171;-72
2024/01/09 08:50:02;;;;;;;8.02;4.30;;;;;;;-6.12;92.60;103326.34;5048403;28;20040;-73
2024/01/09 08:52:27;;;;;;;12.60;4.72;;;;;;;-6.10;93.12;103316.81;5049752;28;20115;-74
2024/01/09 08:54:53;;;;;;;9.38;4.22;;;;;;;-6.08;91.84;103312.41;5031092;28;20047;-73
2024/01/09 08:57:19;;;;;;;12.07;5.57;;;;;;;-6.09;92.17;103308.13;5049197;28;20045;-72
2024/01/09 08:59:45;;;;;;;12.77;4.28;;;;;;;-6.02;92.31;103314.91;5049620;28;20487;-73
2024/01/09 09:02:10;;;;;;;11.90;5.53;;;;;;;-5.94;91.42;103335.56;5049730;28;20032;-71
2024/01/09 09:04:35;;;;;;;10.52;4.68;;;;;;;-6.03;91.50;103301.94;5049692;28;20040;-73
2024/01/09 09:07:01;;;;;;;8.38;4.18;;;;;;;-5.88;91.48;103321.56;5048954;28;20056;-74
2024/01/09 09:09:27;;;;;;;12.00;5.35;;;;;;;-5.83;90.28;103327.53;5047777;28;20056;-74
2024/01/09 09:11:52;;;;;;;13.18;4.85;;;;;;;-5.78;89.56;103326.56;5049342;28;20033;-74
2024/01/09 09:14:18;;;;;;;10.25;5.97;;;;;;;-5.77;89.86;103343.84;5048078;28;20095;-72
2024/01/09 09:16:43;;;;;;;13.73;5.03;;;;;;;-5.78;89.19;103334.34;5047794;28;20043;-72
2024/01/09 09:19:09;;;;;;;8.07;3.80;;;;;;;-5.69;89.05;103342.84;5049222;28;20575;-72
2024/01/09 09:21:34;;;;;;;8.63;4.05;;;;;;;-5.67;89.80;103341.09;5049055;28;20035;-72
2024/01/09 09:24:00;;;;;;;13.15;4.57;;;;;;;-5.64;88.40;103347.06;5051187;28;20071;-71
2024/01/09 09:26:26;;;;;;;8.93;3.95;;;;;;;-5.65;88.79;103323.72;5048945;28;20872;-71
2024/01/09 09:28:51;;;;;;;11.25;4.45;;;;;;;-5.65;87.68;103308.97;5051116;28;20130;-71
2024/01/09 09:31:17;;;;;;;10.07;4.18;;;;;;;-5.61;87.48;103318.41;5050274;28;20482;-71
2024/01/09 09:33:42;;;;;;;11.57;3.83;;;;;;;-5.62;87.78;103308.91;5050912;28;20025;-71
2024/01/09 09:36:08;;;;;;;12.23;5.72;;;;;;;-5.47;87.71;103325.09;5050694;28;20159;-70
2024/01/09 09:38:34;;;;;;;9.50;4.07;;;;;;;-5.43;86.32;103331.94;5050764;28;20908;-71
2024/01/09 09:41:15;;;;;;;10.00;4.20;;;;;;;-5.42;86.77;103325.81;5050867;28;20037;-71
2024/01/09 09:43:52;;;;;;;10.15;5.40;;;;;;;-5.30;87.08;103329.03;5049510;28;20028;-71
2024/01/09 09:46:26;;;;;;;12.05;5.47;;;;;;;-5.32;84.34;103336.03;5050817;28;20036;-71
2024/01/09 09:48:53;;;;;;;11.98;5.88;;;;;;;-5.32;85.57;103332.56;5050767;28;20957;-71
2024/01/09 09:51:20;;;;;;;10.93;4.10;;;;;;;-5.24;85.82;103337.59;5050735;28;20040;-71
2024/01/09 09:53:45;;;;;;;7.68;4.25;;;;;;;-5.23;85.05;103331.53;5050355;28;20037;-71
2024/01/09 09:56:13;;;;;;;9.52;4.18;;;;;;;-5.19;84.00;103327.94;5050517;28;20083;-71
2024/01/09 09:58:39;;;;;;;8.10;3.72;;;;;;;-5.13;84.05;103339.09;5050613;28;20041;-70
2024/01/09 10:01:08;;;;;;;15.88;6.15;;;;;;;-5.16;83.60;103335.69;5050347;28;20090;-70
2024/01/09 10:03:35;;;;;;;7.63;3.65;;;;;;;-5.05;84.14;103344.13;5050247;28;20471;-71
2024/01/09 10:06:05;;;;;;;13.90;5.43;;;;;;;-5.01;83.47;103335.34;5048816;28;20082;-71
2024/01/09 10:08:34;;;;;;;9.20;4.47;;;;;;;-4.95;84.08;103332.63;5050274;28;20041;-71
2024/01/09 10:11:03;;;;;;;9.52;4.32;;;;;;;-4.88;83.37;103334.19;5049891;28;20531;-71
2024/01/09 10:13:29;;;;;;;9.40;3.80;;;;;;;-4.81;82.88;103337.50;5049904;28;20033;-71
2024/01/09 10:15:58;;;;;;;10.45;5.20;;;;;;;-4.81;82.20;103332.31;5048856;28;20381;-70
2024/01/09 10:18:27;;;;;;;12.55;4.13;;;;;;;-4.76;82.44;103332.19;5048651;28;20032;-70
2024/01/09 10:20:53;;;;;;;11.65;5.32;;;;;;;-4.72;81.73;103326.00;5049743;28;20021;-70
2024/01/09 10:23:18;;;;;;;10.63;4.70;;;;;;;-4.70;80.71;103325.09;5048386;28;20083;-71
2024/01/09 10:25:43;;;;;;;8.50;4.00;;;;;;;-4.66;80.93;103320.69;5049832;28;20036;-70
2024/01/09 10:28:16;;;;;;;11.02;4.32;;;;;;;-4.60;81.03;103322.28;5049607;28;20147;-70
2024/01/09 10:30:42;;;;;;;12.55;4.90;;;;;;;-4.53;80.61;103318.59;5049677;28;20075;-71
2024/01/09 10:33:14;;;;;;;11.45;5.40;;;;;;;-4.48;80.04;103329.78;5049905;28;20519;-71
2024/01/09 10:35:40;;;;;;;9.85;4.28;;;;;;;-4.42;79.60;103327.03;5049866;28;20028;-71
2024/01/09 10:38:08;;;;;;;9.43;4.40;;;;;;;-4.41;78.43;103305.28;5049804;28;20506;-72
2024/01/09 10:40:33;;;;;;;7.28;3.40;;;;;;;-4.36;77.74;103315.59;5047165;28;20076;-72
2024/01/09 10:43:00;;;;;;;8.00;4.07;;;;;;;-4.35;77.66;103309.47;5045809;28;20104;-71
2024/01/09 10:45:27;;;;;;;13.25;5.38;;;;;;;-4.33;77.43;103297.28;5047866;28;20025;-72
2024/01/09 10:47:55;;;;;;;8.50;4.68;;;;;;;-4.22;78.03;103295.25;5046447;28;20103;-73
2024/01/09 10:50:21;;;;;;;11.52;4.32;;;;;;;-4.15;77.15;103301.16;5046361;28;20500;-73
2024/01/09 10:52:48;;;;;;;11.05;4.70;;;;;;;-4.17;77.13;103285.56;5047659;28;20033;-71
2024/01/09 10:55:17;;;;;;;9.10;4.20;;;;;;;-4.06;77.36;103286.16;5047028;28;20044;-72
2024/01/09 10:57:44;;;;;;;11.75;5.38;;;;;;;-4.06;76.23;103285.28;5047343;28;20507;-71
2024/01/09 11:00:12;;;;;;;11.63;4.53;;;;;;;-4.03;75.16;103282.59;5047507;28;20112;-70
2024/01/09 11:02:38;;;;;;;9.02;3.97;;;;;;;-4.00;74.61;103280.75;5046194;28;20040;-71
2024/01/09 11:05:05;;;;;;;8.77;3.70;;;;;;;-3.96;73.55;103273.69;5047311;28;20108;-71
2024/01/09 11:07:32;;;;;;;8.05;4.90;;;;;;;-3.89;75.41;103271.78;5045581;28;20980;-71
2024/01/09 11:09:59;;;;;;;8.30;4.32;;;;;;;-3.85;73.56;103266.44;5046847;28;20017;-72
2024/01/09 11:12:30;;;;;;;12.05;4.20;;;;;;;-3.79;74.33;103253.22;5045955;28;20395;-71
2024/01/09 11:15:03;;;;;;;9.73;4.32;;;;;;;-3.69;73.35;103272.09;5047254;28;20407;-71
2024/01/09 11:17:31;;;;;;;9.32;4.32;;;;;;;-3.62;72.13;103272.75;5046908;28;20025;-72